Time;durP1;ratioP1;P1;durP2;ratioP2;P2;SDS_P1;SDS_P2;PMS_P1;PMS_P2;Temp;Humidity;BMP_temperature;BMP_pressure;BME280_temperature;BME280_humidity;BME280_pressure;Samples;Min_cycle;Max_cycle;Signal;HPM_P1;HPM_P2
2022/09/25 00:00:49;;;;;;;;;;;13.70;99.90;;;;;;5081076;28;19943;-82
2022/09/25 00:03:18;;;;;;;;;;;13.70;99.90;;;;;;5081719;28;20152;-82
2022/09/25 00:05:45;;;;;;;;;;;13.70;99.90;;;;;;5097826;28;19987;-81
2022/09/25 00:08:12;;;;;;;;;;;13.70;99.90;;;;;;5061004;28;19924;-82
2022/09/25 00:10:40;;;;;;;;;;;13.70;99.90;;;;;;5075339;28;20018;-82
2022/09/25 00:13:07;;;;;;;;;;;13.70;99.90;;;;;;5081470;28;19953;-82
2022/09/25 00:15:34;;;;;;;;;;;13.70;99.90;;;;;;5060768;28;19924;-82
2022/09/25 00:18:01;;;;;;;;;;;13.70;99.90;;;;;;5060498;28;19928;-81
2022/09/25 00:20:28;;;;;;;;;;;13.70;99.90;;;;;;5078579;28;19924;-82
2022/09/25 00:22:55;;;;;;;;;;;13.70;99.90;;;;;;5078895;28;20135;-82
2022/09/25 00:25:26;;;;;;;;;;;13.70;99.90;;;;;;5078520;28;19969;-80
2022/09/25 00:27:53;;;;;;;;;;;13.70;99.90;;;;;;5097045;28;19939;-81
2022/09/25 00:30:20;;;;;;;;;;;13.70;99.90;;;;;;5096563;28;19924;-81
2022/09/25 00:32:47;;;;;;;;;;;13.70;99.90;;;;;;5093520;28;20483;-80
2022/09/25 00:35:13;;;;;;;;;;;13.80;99.90;;;;;;5079061;28;20052;-80
2022/09/25 00:37:47;;;;;;;;;;;13.70;99.90;;;;;;5079092;28;19935;-80
2022/09/25 00:40:14;;;;;;;;;;;13.70;99.90;;;;;;5080212;28;19928;-79
2022/09/25 00:42:41;;;;;;;;;;;13.70;99.90;;;;;;5098260;28;19943;-80
2022/09/25 00:45:13;;;;;;;;;;;13.70;99.90;;;;;;5078853;28;20190;-80
2022/09/25 00:47:53;;;;;;;;;;;13.70;99.90;;;;;;5077073;28;19924;-80
2022/09/25 00:50:32;;;;;;;;;;;13.60;99.90;;;;;;5093417;28;19987;-80
2022/09/25 00:53:03;;;;;;;;;;;13.60;99.90;;;;;;5073868;28;19935;-80
2022/09/25 00:55:30;;;;;;;;;;;13.60;99.90;;;;;;5065224;28;19924;-80
2022/09/25 00:57:59;;;;;;;;;;;13.50;99.90;;;;;;5062820;28;19928;-79
2022/09/25 01:00:26;;;;;;;;;;;13.50;99.90;;;;;;5074374;28;19941;-79
2022/09/25 01:02:54;;;;;;;;;;;13.50;99.90;;;;;;5092492;28;20015;-79
2022/09/25 01:05:23;;;;;;;;;;;13.50;99.90;;;;;;5072641;28;19943;-80
2022/09/25 01:07:50;;;;;;;;;;;13.50;99.90;;;;;;5094216;28;19927;-80
2022/09/25 01:10:19;;;;;;;;;;;13.50;99.90;;;;;;5085731;28;19931;-80
2022/09/25 01:12:47;;;;;;;;;;;13.40;99.90;;;;;;5074396;28;19932;-81
2022/09/25 01:15:15;;;;;;;;;;;13.50;99.90;;;;;;5093084;28;20391;-80
2022/09/25 01:17:44;;;;;;;;;;;13.40;99.90;;;;;;5076017;28;19999;-79
2022/09/25 01:20:16;;;;;;;;;;;13.40;99.90;;;;;;5076582;28;19943;-79
2022/09/25 01:22:50;;;;;;;;;;;13.40;99.90;;;;;;5093142;28;19945;-79
2022/09/25 01:25:22;;;;;;;;;;;13.40;99.90;;;;;;5076519;28;19974;-77
2022/09/25 01:28:00;;;;;;;;;;;13.40;99.90;;;;;;5072678;28;19932;-78
2022/09/25 01:30:31;;;;;;;;;;;13.40;99.90;;;;;;5089523;28;20847;-78
2022/09/25 01:33:03;;;;;;;;;;;13.40;99.90;;;;;;5089290;28;20213;-80
2022/09/25 01:35:33;;;;;;;;;;;13.40;99.90;;;;;;5075763;28;19937;-80
2022/09/25 01:38:05;;;;;;;;;;;13.40;99.90;;;;;;5077232;28;20354;-80
2022/09/25 01:40:33;;;;;;;;;;;13.40;99.90;;;;;;5075409;28;20025;-79
2022/09/25 01:43:04;;;;;;;;;;;13.40;99.90;;;;;;5089308;28;19928;-80
2022/09/25 01:45:36;;;;;;;;;;;13.40;99.90;;;;;;5078004;28;19969;-80
2022/09/25 01:48:05;;;;;;;;;;;13.40;99.90;;;;;;5092038;28;20255;-80
2022/09/25 01:50:34;;;;;;;;;;;13.30;99.90;;;;;;5076087;28;19932;-80
2022/09/25 01:53:04;;;;;;;;;;;13.30;99.90;;;;;;5081964;28;19924;-79
2022/09/25 01:55:34;;;;;;;;;;;13.30;99.90;;;;;;5092582;28;19924;-80
2022/09/25 01:58:06;;;;;;;;;;;13.30;99.90;;;;;;5075791;28;20447;-80
2022/09/25 02:00:37;;;;;;;;;;;13.30;99.90;;;;;;5077923;28;19932;-80
2022/09/25 02:03:09;;;;;;;;;;;13.30;99.90;;;;;;5075216;28;20399;-79
2022/09/25 02:05:39;;;;;;;;;;;13.30;99.90;;;;;;5088843;28;19932;-80
2022/09/25 02:08:10;;;;;;;;;;;13.30;99.90;;;;;;5071653;28;20508;-80
2022/09/25 02:10:41;;;;;;;;;;;13.30;99.90;;;;;;5092160;28;19932;-80
2022/09/25 02:13:09;;;;;;;;;;;13.30;99.90;;;;;;5092608;28;19951;-80
2022/09/25 02:15:40;;;;;;;;;;;13.30;99.90;;;;;;5099669;28;19928;-79
2022/09/25 02:20:57;;;;;;;;;;;13.20;99.90;;;;;;5087736;28;19999;-80
2022/09/25 02:23:25;;;;;;;;;;;13.20;99.90;;;;;;5076802;28;19928;-80
2022/09/25 02:25:56;;;;;;;;;;;13.30;99.90;;;;;;5076585;28;19951;-80
2022/09/25 02:28:23;;;;;;;;;;;13.20;99.90;;;;;;5077898;28;19932;-80
2022/09/25 02:30:51;;;;;;;;;;;13.30;99.90;;;;;;5094248;28;20419;-80
2022/09/25 02:33:18;;;;;;;;;;;13.30;99.90;;;;;;5076313;28;20284;-80
2022/09/25 02:35:45;;;;;;;;;;;13.30;99.90;;;;;;5078396;28;19934;-80
2022/09/25 02:38:12;;;;;;;;;;;13.30;99.90;;;;;;5095260;28;19935;-80
2022/09/25 02:40:44;;;;;;;;;;;13.30;99.90;;;;;;5077338;28;19932;-80
2022/09/25 02:43:18;;;;;;;;;;;13.30;99.90;;;;;;5092266;28;19928;-80
2022/09/25 02:45:51;;;;;;;;;;;13.30;99.90;;;;;;5076290;28;20469;-80
2022/09/25 02:48:22;;;;;;;;;;;13.30;99.90;;;;;;5073804;28;19935;-80
2022/09/25 02:50:54;;;;;;;;;;;13.30;99.90;;;;;;5074987;28;19928;-80
2022/09/25 02:53:25;;;;;;;;;;;13.30;99.90;;;;;;5088092;28;19932;-80
2022/09/25 02:55:56;;;;;;;;;;;13.30;99.90;;;;;;5074806;28;19977;-80
2022/09/25 02:58:26;;;;;;;;;;;13.10;99.90;;;;;;5094267;28;20448;-80
2022/09/25 03:00:55;;;;;;;;;;;13.10;99.90;;;;;;5091766;28;19932;-79
2022/09/25 03:03:25;;;;;;;;;;;13.00;99.90;;;;;;5075668;28;19935;-80
2022/09/25 03:05:56;;;;;;;;;;;13.00;99.90;;;;;;5088771;28;19978;-80
2022/09/25 03:08:40;;;;;;;;;;;12.80;99.90;;;;;;5089950;28;19931;-78
2022/09/25 03:11:08;;;;;;;;;;;12.80;99.90;;;;;;5068453;28;20047;-78
2022/09/25 03:13:35;;;;;;;;;;;12.70;99.90;;;;;;5078240;28;19962;-78
2022/09/25 03:16:04;;;;;;;;;;;12.70;99.90;;;;;;5078969;28;19936;-78
2022/09/25 03:18:33;;;;;;;;;;;12.60;99.90;;;;;;5076844;28;19935;-78
2022/09/25 03:20:59;;;;;;;;;;;12.60;99.90;;;;;;5074134;28;19975;-78
2022/09/25 03:23:26;;;;;;;;;;;12.50;99.90;;;;;;5074796;28;19935;-78
2022/09/25 03:25:54;;;;;;;;;;;12.50;99.90;;;;;;5077709;28;19994;-78
2022/09/25 03:28:21;;;;;;;;;;;12.50;99.90;;;;;;5072294;28;20011;-77
2022/09/25 03:30:58;;;;;;;;;;;12.50;99.90;;;;;;5076727;28;20299;-78
2022/09/25 03:33:25;;;;;;;;;;;12.50;99.90;;;;;;5072208;28;20477;-77
2022/09/25 03:36:01;;;;;;;;;;;12.40;99.90;;;;;;5073122;28;19974;-78
2022/09/25 03:38:28;;;;;;;;;;;12.40;99.90;;;;;;5088791;28;19985;-79
2022/09/25 03:40:55;;;;;;;;;;;12.40;99.90;;;;;;5073727;28;20407;-78
2022/09/25 03:43:22;;;;;;;;;;;12.40;99.90;;;;;;5073101;28;20547;-78
2022/09/25 03:45:48;;;;;;;;;;;12.40;99.90;;;;;;5073822;28;19924;-78
2022/09/25 03:48:16;;;;;;;;;;;12.30;99.90;;;;;;5074066;28;19939;-78
2022/09/25 03:50:43;;;;;;;;;;;12.40;99.90;;;;;;5075028;28;19928;-78
2022/09/25 03:53:11;;;;;;;;;;;12.40;99.90;;;;;;5071675;28;20350;-77
2022/09/25 03:55:38;;;;;;;;;;;12.40;99.90;;;;;;5075528;28;19951;-77
2022/09/25 03:58:04;;;;;;;;;;;12.40;99.90;;;;;;5074671;28;19943;-78
2022/09/25 04:00:31;;;;;;;;;;;12.40;99.90;;;;;;5072862;28;19928;-78
2022/09/25 04:02:58;;;;;;;;;;;12.40;99.90;;;;;;5076282;28;19959;-78
2022/09/25 04:05:25;;;;;;;;;;;12.40;99.90;;;;;;5093906;28;19927;-78
2022/09/25 04:07:52;;;;;;;;;;;12.40;99.90;;;;;;5083204;28;19928;-79
2022/09/25 04:10:20;;;;;;;;;;;12.40;99.90;;;;;;5083520;28;19936;-78
2022/09/25 04:12:53;;;;;;;;;;;12.40;99.90;;;;;;5076542;28;20116;-78
2022/09/25 04:15:21;;;;;;;;;;;12.50;99.90;;;;;;5074542;28;19935;-78
2022/09/25 04:17:48;;;;;;;;;;;12.50;99.90;;;;;;5081992;28;19932;-79
2022/09/25 04:20:15;;;;;;;;;;;12.50;99.90;;;;;;5076288;28;19932;-79
2022/09/25 04:22:42;;;;;;;;;;;12.50;99.90;;;;;;5096321;28;19928;-79
2022/09/25 04:25:09;;;;;;;;;;;12.50;99.90;;;;;;5077036;28;19970;-78
2022/09/25 04:27:38;;;;;;;;;;;12.50;99.90;;;;;;5071742;28;19932;-79
2022/09/25 04:30:06;;;;;;;;;;;12.50;99.90;;;;;;5085596;28;19930;-77
2022/09/25 04:35:19;;;;;;;;;;;12.40;99.90;;;;;;5087409;28;20311;-78
2022/09/25 04:37:46;;;;;;;;;;;12.30;99.90;;;;;;5069988;28;19924;-78
2022/09/25 04:40:13;;;;;;;;;;;12.30;99.90;;;;;;5068614;28;19973;-78
2022/09/25 04:42:42;;;;;;;;;;;12.20;99.90;;;;;;5066957;28;19965;-78
2022/09/25 04:45:09;;;;;;;;;;;12.10;99.90;;;;;;5088082;28;20525;-78
2022/09/25 04:47:36;;;;;;;;;;;12.00;99.90;;;;;;5076038;28;19932;-78
2022/09/25 04:50:07;;;;;;;;;;;12.00;99.90;;;;;;5082290;28;19935;-78
2022/09/25 04:52:34;;;;;;;;;;;12.00;99.90;;;;;;5073697;28;19924;-77
2022/09/25 04:55:03;;;;;;;;;;;11.80;99.90;;;;;;5073946;28;20405;-78
2022/09/25 04:57:30;;;;;;;;;;;11.80;99.90;;;;;;5073390;28;19932;-77
2022/09/25 04:59:58;;;;;;;;;;;11.80;99.90;;;;;;5075871;28;19952;-79
2022/09/25 05:02:26;;;;;;;;;;;11.70;99.90;;;;;;5092218;28;19981;-79
2022/09/25 05:04:53;;;;;;;;;;;11.70;99.90;;;;;;5088489;28;19928;-79
2022/09/25 05:07:20;;;;;;;;;;;11.60;99.90;;;;;;5088915;28;20391;-81
2022/09/25 05:09:47;;;;;;;;;;;11.50;99.90;;;;;;5071282;28;19935;-81
2022/09/25 05:12:14;;;;;;;;;;;11.50;99.90;;;;;;5073116;28;19975;-79
2022/09/25 05:14:41;;;;;;;;;;;11.40;99.90;;;;;;5072339;28;20379;-80
2022/09/25 05:17:10;;;;;;;;;;;11.40;99.90;;;;;;5075524;28;19924;-78
2022/09/25 05:19:38;;;;;;;;;;;11.30;99.90;;;;;;5071747;28;19928;-78
2022/09/25 05:22:05;;;;;;;;;;;11.20;99.90;;;;;;5072473;28;19932;-79
2022/09/25 05:24:34;;;;;;;;;;;11.20;99.90;;;;;;5081892;28;19928;-81
2022/09/25 05:27:02;;;;;;;;;;;11.10;99.90;;;;;;5083860;28;20031;-78
2022/09/25 05:29:30;;;;;;;;;;;11.00;99.90;;;;;;5069161;28;19939;-80
2022/09/25 05:32:00;;;;;;;;;;;11.00;99.90;;;;;;5080528;28;19919;-80
2022/09/25 05:34:28;;;;;;;;;;;11.00;99.90;;;;;;5086457;28;19928;-80
2022/09/25 05:36:55;;;;;;;;;;;11.00;99.90;;;;;;5064015;28;20354;-80
2022/09/25 05:39:22;;;;;;;;;;;11.00;99.90;;;;;;5069617;28;19952;-79
2022/09/25 05:41:50;;;;;;;;;;;11.00;99.90;;;;;;5079620;28;19932;-81
2022/09/25 05:44:17;;;;;;;;;;;11.00;99.90;;;;;;5089579;28;19939;-80
2022/09/25 05:46:44;;;;;;;;;;;11.00;99.90;;;;;;5069318;28;20399;-80
2022/09/25 05:49:10;;;;;;;;;;;11.10;99.90;;;;;;5088216;28;19924;-80
2022/09/25 05:51:39;;;;;;;;;;;11.10;99.90;;;;;;5073602;28;20011;-81
2022/09/25 05:54:06;;;;;;;;;;;11.20;99.90;;;;;;5074371;28;20461;-80
2022/09/25 05:56:33;;;;;;;;;;;11.30;99.90;;;;;;5071543;28;19974;-82
2022/09/25 05:59:00;;;;;;;;;;;11.40;99.90;;;;;;5066232;28;19932;-82
2022/09/25 06:01:27;;;;;;;;;;;11.40;99.90;;;;;;5069667;28;19963;-82
2022/09/25 06:03:55;;;;;;;;;;;11.50;99.90;;;;;;5099698;28;19924;-80
2022/09/25 06:06:22;;;;;;;;;;;11.50;99.90;;;;;;5071176;28;20471;-81
2022/09/25 06:08:50;;;;;;;;;;;11.60;99.90;;;;;;5083397;28;19924;-80
2022/09/25 06:11:17;;;;;;;;;;;11.70;99.90;;;;;;5099625;28;19928;-82
2022/09/25 06:13:45;;;;;;;;;;;11.80;99.90;;;;;;5084755;28;19924;-85
2022/09/25 06:16:18;;;;;;;;;;;11.90;99.90;;;;;;5071522;28;19938;-81
2022/09/25 06:18:45;;;;;;;;;;;12.00;99.90;;;;;;5076206;28;19978;-80
2022/09/25 06:21:13;;;;;;;;;;;12.20;99.90;;;;;;5076486;28;19924;-80
2022/09/25 06:23:41;;;;;;;;;;;12.20;99.90;;;;;;5084717;28;19932;-81
2022/09/25 06:26:10;;;;;;;;;;;12.70;99.90;;;;;;5091390;28;20394;-82
2022/09/25 06:28:37;;;;;;;;;;;12.70;99.90;;;;;;5093002;28;19924;-82
2022/09/25 06:31:05;;;;;;;;;;;12.90;99.90;;;;;;5083404;28;19928;-81
2022/09/25 06:33:32;;;;;;;;;;;12.90;99.90;;;;;;5083493;28;19924;-81
2022/09/25 06:35:59;;;;;;;;;;;13.00;99.90;;;;;;5084181;28;19935;-80
2022/09/25 06:38:26;;;;;;;;;;;13.70;99.90;;;;;;5077066;28;20400;-83
2022/09/25 06:40:53;;;;;;;;;;;13.70;99.90;;;;;;5087208;28;20024;-80
2022/09/25 06:43:22;;;;;;;;;;;14.10;99.90;;;;;;5088591;28;19975;-80
2022/09/25 06:45:50;;;;;;;;;;;14.90;99.90;;;;;;5068986;28;19950;-80
2022/09/25 06:48:17;;;;;;;;;;;16.70;99.90;;;;;;5071079;28;19985;-80
2022/09/25 06:50:45;;;;;;;;;;;16.70;99.90;;;;;;5071285;28;19935;-81
2022/09/25 06:53:13;;;;;;;;;;;17.60;99.90;;;;;;5071527;28;19927;-80
2022/09/25 06:55:41;;;;;;;;;;;18.50;99.90;;;;;;5072596;28;20094;-81
2022/09/25 06:58:11;;;;;;;;;;;18.80;99.90;;;;;;5077581;28;19928;-81
2022/09/25 07:00:41;;;;;;;;;;;19.90;99.90;;;;;;5090918;28;19928;-80
2022/09/25 07:05:52;;;;;;;;;;;20.80;99.90;;;;;;5073232;28;19963;-80
2022/09/25 07:08:20;;;;;;;;;;;20.80;99.90;;;;;;5095265;28;19932;-80
2022/09/25 07:10:49;;;;;;;;;;;20.80;99.90;;;;;;5074463;28;19971;-80
2022/09/25 07:13:16;;;;;;;;;;;20.60;99.90;;;;;;5078083;28;19935;-80
2022/09/25 07:15:50;;;;;;;;;;;20.30;99.90;;;;;;5068020;28;20350;-81
2022/09/25 07:18:17;;;;;;;;;;;19.10;99.90;;;;;;5076435;28;19942;-79
2022/09/25 07:20:45;;;;;;;;;;;19.10;99.90;;;;;;5069326;28;20398;-80
2022/09/25 07:23:24;;;;;;;;;;;18.40;99.90;;;;;;5080794;28;19932;-82
2022/09/25 07:25:54;;;;;;;;;;;18.50;99.90;;;;;;5100608;28;19928;-84
2022/09/25 07:28:21;;;;;;;;;;;18.60;99.90;;;;;;5099918;28;19924;-84
2022/09/25 07:30:53;;;;;;;;;;;19.50;99.90;;;;;;5076438;28;19935;-84
2022/09/25 07:33:24;;;;;;;;;;;19.60;99.90;;;;;;5100991;28;20134;-85
2022/09/25 07:35:53;;;;;;;;;;;20.20;99.90;;;;;;5078233;28;19933;-85
2022/09/25 07:38:27;;;;;;;;;;;21.20;99.90;;;;;;5095964;28;19982;-85
2022/09/25 07:41:21;;;;;;;;;;;21.30;99.90;;;;;;5095877;28;20019;-84
2022/09/25 07:43:51;;;;;;;;;;;22.10;99.90;;;;;;5075379;28;19970;-83
2022/09/25 07:46:20;;;;;;;;;;;22.10;99.90;;;;;;5079143;28;19932;-84
2022/09/25 07:48:48;;;;;;;;;;;22.40;99.90;;;;;;5073917;28;19932;-85
2022/09/25 07:51:20;;;;;;;;;;;22.90;99.90;;;;;;5060702;28;19924;-84
2022/09/25 07:53:47;;;;;;;;;;;22.90;99.90;;;;;;5074495;28;19928;-83
2022/09/25 07:56:14;;;;;;;;;;;23.00;99.90;;;;;;5095270;28;19928;-84
2022/09/25 07:58:41;;;;;;;;;;;23.20;99.90;;;;;;5100935;28;19964;-84
2022/09/25 08:01:10;;;;;;;;;;;23.30;99.90;;;;;;5074459;28;20021;-84
2022/09/25 08:03:39;;;;;;;;;;;23.50;99.90;;;;;;5078763;28;19928;-82
2022/09/25 08:06:08;;;;;;;;;;;23.70;99.90;;;;;;5069910;28;19932;-84
2022/09/25 08:08:36;;;;;;;;;;;23.80;99.90;;;;;;5077999;28;20134;-82
2022/09/25 08:11:05;;;;;;;;;;;23.80;99.90;;;;;;5061131;28;19928;-80
2022/09/25 08:13:32;;;;;;;;;;;23.70;99.90;;;;;;5059601;28;19976;-78
2022/09/25 08:16:01;;;;;;;;;;;23.40;99.90;;;;;;5066395;28;20031;-79
2022/09/25 08:18:29;;;;;;;;;;;24.50;99.90;;;;;;5058164;28;20034;-78
2022/09/25 08:21:02;;;;;;;;;;;23.10;99.90;;;;;;5070324;28;21291;-78
2022/09/25 08:23:29;;;;;;;;;;;23.20;99.90;;;;;;5073304;28;19932;-78
2022/09/25 08:25:56;;;;;;;;;;;23.30;99.90;;;;;;5053403;28;19932;-77
2022/09/25 08:28:23;;;;;;;;;;;23.10;99.90;;;;;;5052831;28;19951;-76
2022/09/25 08:30:50;;;;;;;;;;;23.10;99.90;;;;;;5068163;28;19935;-78
2022/09/25 08:33:17;;;;;;;;;;;23.10;99.90;;;;;;5073633;28;19963;-77
2022/09/25 08:35:45;;;;;;;;;;;23.20;99.90;;;;;;5074332;28;20224;-76
2022/09/25 08:38:14;;;;;;;;;;;22.90;99.90;;;;;;5063759;28;19939;-76
2022/09/25 08:40:44;;;;;;;;;;;22.80;99.90;;;;;;5078732;28;19932;-76
2022/09/25 08:43:15;;;;;;;;;;;22.20;99.90;;;;;;5085251;28;19980;-77
2022/09/25 08:51:15;;;;;;;;;;;21.60;99.90;;;;;;5081473;28;19974;-76
2022/09/25 08:53:45;;;;;;;;;;;21.50;99.90;;;;;;5063410;28;19937;-77
2022/09/25 08:56:16;;;;;;;;;;;21.40;99.90;;;;;;5063522;28;19932;-77
2022/09/25 08:58:44;;;;;;;;;;;21.50;99.90;;;;;;5063157;28;19932;-76
2022/09/25 09:01:13;;;;;;;;;;;21.70;99.90;;;;;;5065201;28;19932;-77
2022/09/25 09:03:44;;;;;;;;;;;21.80;99.90;;;;;;5067411;28;20032;-77
2022/09/25 09:06:14;;;;;;;;;;;21.90;99.90;;;;;;5067991;28;19932;-76
2022/09/25 09:08:44;;;;;;;;;;;21.90;99.90;;;;;;5092479;28;19967;-76
2022/09/25 09:11:15;;;;;;;;;;;22.00;99.90;;;;;;5074273;28;19955;-77
2022/09/25 09:13:44;;;;;;;;;;;22.10;99.90;;;;;;5074316;28;19969;-79
2022/09/25 09:16:16;;;;;;;;;;;22.00;99.90;;;;;;5071730;28;19993;-76
2022/09/25 09:18:43;;;;;;;;;;;21.80;99.90;;;;;;5092341;28;20505;-76
2022/09/25 09:21:13;;;;;;;;;;;21.80;99.90;;;;;;5084122;28;20369;-77
2022/09/25 09:23:43;;;;;;;;;;;21.80;99.90;;;;;;5066324;28;19936;-76
2022/09/25 09:26:15;;;;;;;;;;;21.70;99.90;;;;;;5086202;28;19936;-76
2022/09/25 09:28:48;;;;;;;;;;;21.60;99.90;;;;;;5064686;28;19928;-76
2022/09/25 09:31:17;;;;;;;;;;;21.50;99.90;;;;;;5064554;28;19932;-75
2022/09/25 09:33:48;;;;;;;;;;;21.40;99.90;;;;;;5060827;28;19932;-76
2022/09/25 09:36:19;;;;;;;;;;;21.30;99.90;;;;;;5067553;28;19932;-75
2022/09/25 09:38:50;;;;;;;;;;;21.00;99.90;;;;;;5062585;28;19935;-75
2022/09/25 09:41:21;;;;;;;;;;;21.00;99.90;;;;;;5064171;28;19932;-76
2022/09/25 09:43:55;;;;;;;;;;;20.50;99.90;;;;;;5059042;28;19924;-77
2022/09/25 09:46:27;;;;;;;;;;;20.20;99.90;;;;;;5081111;28;19932;-77
2022/09/25 09:49:00;;;;;;;;;;;19.90;99.90;;;;;;5062049;28;19973;-76
2022/09/25 09:51:30;;;;;;;;;;;19.90;99.90;;;;;;5066428;28;20342;-76
2022/09/25 09:54:00;;;;;;;;;;;19.80;99.90;;;;;;5084856;28;20349;-76
2022/09/25 09:56:28;;;;;;;;;;;19.90;99.90;;;;;;5070062;28;19932;-76
2022/09/25 09:58:58;;;;;;;;;;;20.10;99.90;;;;;;5068401;28;19937;-76
2022/09/25 10:01:26;;;;;;;;;;;20.10;99.90;;;;;;5069023;28;19928;-77
2022/09/25 10:03:58;;;;;;;;;;;19.90;99.90;;;;;;5055077;28;20006;-76
2022/09/25 10:06:28;;;;;;;;;;;19.70;99.90;;;;;;5066305;28;20845;-76
2022/09/25 10:08:55;;;;;;;;;;;19.50;99.90;;;;;;5146124;22;20803;-72
2022/09/25 10:11:22;;;;;;;;;;;19.60;99.90;;;;;;5041429;28;19933;-72
2022/09/25 10:13:48;;;;;;;;;;;19.50;99.90;;;;;;5020097;28;19937;-73
2022/09/25 10:16:18;;;;;;;;;;;19.70;99.90;;;;;;5043576;28;20599;-72
2022/09/25 10:18:47;;;;;;;;;;;19.60;99.90;;;;;;5027382;28;20252;-73
2022/09/25 10:21:16;;;;;;;;;;;19.50;99.90;;;;;;5039916;28;20181;-73
2022/09/25 10:23:47;;;;;;;;;;;19.50;99.90;;;;;;5034300;28;20358;-72
2022/09/25 10:28:45;;;;;;;;;;;19.70;99.90;;;;;;4979972;28;20017;-72
2022/09/25 10:31:12;;;;;;;;;;;19.90;99.90;;;;;;4984800;28;19930;-73
2022/09/25 10:33:40;;;;;;;;;;;20.00;99.90;;;;;;4985269;28;19933;-73
2022/09/25 10:36:07;;;;;;;;;;;20.30;99.90;;;;;;4994743;28;19926;-73
2022/09/25 10:38:36;;;;;;;;;;;20.50;99.90;;;;;;4996603;28;19940;-73
2022/09/25 10:41:05;;;;;;;;;;;20.60;99.90;;;;;;4993708;28;20363;-73
2022/09/25 10:43:32;;;;;;;;;;;20.40;99.90;;;;;;5000215;28;20311;-72
2022/09/25 10:46:11;;;;;;;;;;;20.40;99.90;;;;;;5013517;28;19929;-74
2022/09/25 10:51:24;;;;;;;;;;;20.30;99.90;;;;;;4980864;28;19975;-74
2022/09/25 10:53:51;;;;;;;;;;;20.20;99.90;;;;;;4997492;28;19933;-76
2022/09/25 10:56:20;;;;;;;;;;;20.30;99.90;;;;;;4998233;28;19933;-76
2022/09/25 10:58:50;;;;;;;;;;;20.40;99.90;;;;;;5002333;28;20563;-78
2022/09/25 11:01:16;;;;;;;;;;;20.70;99.90;;;;;;5001545;28;19949;-78
2022/09/25 11:03:49;;;;;;;;;;;20.70;99.90;;;;;;4993002;28;19933;-78
2022/09/25 11:06:19;;;;;;;;;;;20.90;99.90;;;;;;4996578;28;19934;-78
2022/09/25 11:08:50;;;;;;;;;;;20.90;99.90;;;;;;4996882;28;20418;-77
2022/09/25 11:11:21;;;;;;;;;;;20.90;99.90;;;;;;5004485;28;19977;-75
2022/09/25 11:13:50;;;;;;;;;;;20.80;99.90;;;;;;4999785;28;20403;-76
2022/09/25 11:16:16;;;;;;;;;;;20.60;99.90;;;;;;4994597;28;19934;-75
2022/09/25 11:18:44;;;;;;;;;;;20.40;99.90;;;;;;4997105;28;20016;-75
2022/09/25 11:21:19;;;;;;;;;;;20.20;99.90;;;;;;4996245;28;20426;-72
2022/09/25 11:23:57;;;;;;;;;;;20.10;99.90;;;;;;4999956;28;19937;-73
2022/09/25 11:26:27;;;;;;;;;;;20.30;99.90;;;;;;5007900;28;19958;-77
2022/09/25 11:28:56;;;;;;;;;;;20.50;99.90;;;;;;4996523;28;19926;-79
2022/09/25 11:31:26;;;;;;;;;;;21.00;99.90;;;;;;5009830;28;19930;-78
2022/09/25 11:33:56;;;;;;;;;;;21.50;99.90;;;;;;5001882;28;19956;-78
2022/09/25 11:36:26;;;;;;;;;;;21.90;99.90;;;;;;4996696;28;21472;-78
2022/09/25 11:41:42;;;;;;;;;;;22.10;99.90;;;;;;5005168;28;20402;-78
2022/09/25 11:44:21;;;;;;;;;;;21.90;99.90;;;;;;5006534;28;19929;-76
2022/09/25 11:46:49;;;;;;;;;;;;;;;;;;5007199;22;19995;-77
2022/09/25 11:49:21;;;;;;;;;;;21.10;99.90;;;;;;5046844;28;19981;-79
2022/09/25 11:52:05;;;;;;;;;;;21.00;99.90;;;;;;5040234;28;19975;-79
2022/09/25 11:54:37;;;;;;;;;;;20.80;99.90;;;;;;5028001;28;20413;-79
2022/09/25 11:57:08;;;;;;;;;;;20.60;99.90;;;;;;5017234;28;19931;-77
2022/09/25 11:59:41;;;;;;;;;;;20.40;99.90;;;;;;5002162;28;20406;-77
2022/09/25 12:02:14;;;;;;;;;;;20.40;99.90;;;;;;5018958;28;19939;-77
2022/09/25 12:04:51;;;;;;;;;;;20.50;99.90;;;;;;5018712;28;20305;-77
2022/09/25 12:07:34;;;;;;;;;;;20.60;99.90;;;;;;5027048;28;20277;-77
2022/09/25 12:10:12;;;;;;;;;;;20.90;99.90;;;;;;5015336;28;19930;-77
2022/09/25 12:12:43;;;;;;;;;;;20.90;99.90;;;;;;4994887;28;19925;-78
2022/09/25 12:15:16;;;;;;;;;;;21.40;99.90;;;;;;5016642;28;20007;-77
2022/09/25 12:17:50;;;;;;;;;;;21.20;99.90;;;;;;5012372;28;19929;-76
2022/09/25 12:20:20;;;;;;;;;;;21.50;99.90;;;;;;5013596;28;20024;-76
2022/09/25 12:22:53;;;;;;;;;;;21.90;99.90;;;;;;4999383;28;19977;-76
2022/09/25 12:25:27;;;;;;;;;;;22.50;99.90;;;;;;5018035;28;20347;-76
2022/09/25 12:27:57;;;;;;;;;;;23.50;99.90;;;;;;5001503;28;19929;-79
2022/09/25 12:30:30;;;;;;;;;;;23.50;99.90;;;;;;5016126;28;19929;-76
2022/09/25 12:33:14;;;;;;;;;;;24.10;99.90;;;;;;5014690;28;19977;-78
2022/09/25 12:35:48;;;;;;;;;;;24.10;99.90;;;;;;5013914;28;20361;-78
2022/09/25 12:38:23;;;;;;;;;;;24.30;99.90;;;;;;5010478;28;19926;-79
2022/09/25 12:40:59;;;;;;;;;;;24.30;99.90;;;;;;5017813;28;20320;-79
2022/09/25 12:43:49;;;;;;;;;;;24.10;99.90;;;;;;5036989;28;20521;-76
2022/09/25 12:46:22;;;;;;;;;;;24.10;99.90;;;;;;5033610;28;19933;-76
2022/09/25 12:48:52;;;;;;;;;;;24.00;99.90;;;;;;5049269;28;19932;-76
2022/09/25 12:51:22;;;;;;;;;;;24.00;99.90;;;;;;5047345;28;19933;-79
2022/09/25 12:53:52;;;;;;;;;;;24.00;99.90;;;;;;5008959;28;20674;-79
2022/09/25 12:56:25;;;;;;;;;;;24.00;99.90;;;;;;5026792;28;19932;-79
2022/09/25 12:58:59;;;;;;;;;;;24.10;99.90;;;;;;5018319;28;19948;-79
2022/09/25 13:01:30;;;;;;;;;;;24.40;99.90;;;;;;5041102;28;19935;-79
2022/09/25 13:04:12;;;;;;;;;;;24.40;99.90;;;;;;5036763;28;19936;-80
2022/09/25 13:06:42;;;;;;;;;;;24.60;99.90;;;;;;5028970;28;19933;-74
2022/09/25 13:09:15;;;;;;;;;;;24.50;99.90;;;;;;5042271;28;20023;-75
2022/09/25 13:11:49;;;;;;;;;;;24.40;99.90;;;;;;5012696;28;19929;-75
2022/09/25 13:14:21;;;;;;;;;;;24.40;99.90;;;;;;5012955;28;19999;-80
2022/09/25 13:16:48;;;;;;;;;;;24.40;99.90;;;;;;5014230;28;19933;-79
2022/09/25 13:19:24;;;;;;;;;;;24.10;99.90;;;;;;5012169;28;19925;-78
2022/09/25 13:21:51;;;;;;;;;;;24.10;99.90;;;;;;5015879;28;19937;-75
2022/09/25 13:24:18;;;;;;;;;;;24.10;99.90;;;;;;5029163;28;19937;-76
2022/09/25 13:26:49;;;;;;;;;;;24.20;99.90;;;;;;5015363;28;19929;-76
2022/09/25 13:29:34;;;;;;;;;;;24.30;99.90;;;;;;5031278;28;19932;-77
2022/09/25 13:32:29;;;;;;;;;;;24.30;99.90;;;;;;5019381;28;19935;-75
2022/09/25 13:35:16;;;;;;;;;;;24.20;99.90;;;;;;5039849;28;19951;-75
2022/09/25 13:38:07;;;;;;;;;;;24.10;99.90;;;;;;5015117;28;19924;-75
2022/09/25 13:40:47;;;;;;;;;;;24.10;99.90;;;;;;5034816;28;19929;-75
2022/09/25 13:43:24;;;;;;;;;;;24.00;99.00;;;;;;5210515;22;19952;-73
2022/09/25 13:46:27;;;;;;;;;;;24.00;98.60;;;;;;5044990;28;19975;-75
2022/09/25 13:48:54;;;;;;;;;;;24.00;98.20;;;;;;5051277;28;19981;-74
2022/09/25 13:51:35;;;;;;;;;;;23.90;98.30;;;;;;5032645;28;20314;-74
2022/09/25 13:54:03;;;;;;;;;;;23.80;97.50;;;;;;5037986;28;20074;-74
2022/09/25 13:56:45;;;;;;;;;;;23.70;97.60;;;;;;5051336;28;19939;-74
2022/09/25 13:59:27;;;;;;;;;;;23.50;97.70;;;;;;5055636;28;19955;-73
2022/09/25 14:01:58;;;;;;;;;;;23.00;97.90;;;;;;5046848;28;19936;-73
2022/09/25 14:04:30;;;;;;;;;;;22.80;97.40;;;;;;5042544;28;19999;-73
2022/09/25 14:07:04;;;;;;;;;;;22.30;97.60;;;;;;5022901;28;20262;-73
2022/09/25 14:09:31;;;;;;;;;;;21.90;97.80;;;;;;5026335;28;19932;-74
2022/09/25 14:12:03;;;;;;;;;;;21.60;98.10;;;;;;5051368;28;19996;-75
2022/09/25 14:14:33;;;;;;;;;;;21.40;98.10;;;;;;5044930;28;19940;-76
2022/09/25 14:17:01;;;;;;;;;;;21.10;98.40;;;;;;5058598;28;19924;-75
2022/09/25 14:19:31;;;;;;;;;;;20.90;98.80;;;;;;5047784;28;19929;-75
2022/09/25 14:22:10;;;;;;;;;;;20.60;98.90;;;;;;5061892;28;19928;-75
2022/09/25 14:24:44;;;;;;;;;;;20.50;99.10;;;;;;5052236;28;19929;-75
2022/09/25 14:27:18;;;;;;;;;;;20.30;99.40;;;;;;5056703;28;19928;-75
2022/09/25 14:29:45;;;;;;;;;;;20.20;99.60;;;;;;5023574;28;20342;-74
2022/09/25 14:32:18;;;;;;;;;;;20.10;99.90;;;;;;5049379;28;19986;-75
2022/09/25 14:34:52;;;;;;;;;;;19.90;99.90;;;;;;5064583;28;19962;-74
2022/09/25 14:37:35;;;;;;;;;;;19.90;99.90;;;;;;5056874;28;20023;-75
2022/09/25 14:40:05;;;;;;;;;;;19.90;99.90;;;;;;5045116;28;19971;-75
2022/09/25 14:42:44;;;;;;;;;;;20.10;99.90;;;;;;5063711;28;20130;-76
2022/09/25 14:45:21;;;;;;;;;;;20.00;99.90;;;;;;5026393;28;20432;-75
2022/09/25 14:47:50;;;;;;;;;;;20.00;99.90;;;;;;5052736;28;20024;-79
2022/09/25 14:50:20;;;;;;;;;;;19.70;99.90;;;;;;5052355;28;19990;-78
2022/09/25 14:52:51;;;;;;;;;;;19.60;99.90;;;;;;5056375;28;20705;-77
2022/09/25 14:55:19;;;;;;;;;;;19.50;99.90;;;;;;5058234;28;19932;-77
2022/09/25 14:57:47;;;;;;;;;;;19.40;99.90;;;;;;5058422;28;19925;-78